createdAt,value
2017-10-04T00:02:18.645Z,7.68
2017-10-04T00:04:46.450Z,7.12
2017-10-04T00:07:14.200Z,6.53
2017-10-04T00:09:41.953Z,7.55
2017-10-04T00:12:10.703Z,7.87
2017-10-04T00:14:38.448Z,7.85
2017-10-04T00:17:06.200Z,7.62
2017-10-04T00:19:34.008Z,6.78
2017-10-04T00:22:01.758Z,7.70
2017-10-04T00:24:29.506Z,7.45
2017-10-04T00:26:57.343Z,7.82
2017-10-04T00:29:25.091Z,7.25
2017-10-04T00:31:52.847Z,8.40
2017-10-04T00:34:20.649Z,6.80
2017-10-04T00:36:48.399Z,7.07
2017-10-04T00:39:16.152Z,8.10
2017-10-04T00:41:43.959Z,7.22
2017-10-04T00:44:11.708Z,7.25
2017-10-04T00:46:39.462Z,7.85
2017-10-04T00:49:07.278Z,7.20
2017-10-04T00:51:35.024Z,7.78
2017-10-04T00:54:03.543Z,7.90
2017-10-04T00:56:31.347Z,7.70
2017-10-04T00:58:59.098Z,8.48
2017-10-04T01:01:26.851Z,7.93
2017-10-04T01:03:55.411Z,8.50
2017-10-04T01:06:23.158Z,7.87
2017-10-04T01:08:50.912Z,7.80
2017-10-04T01:11:18.724Z,7.18
2017-10-04T01:13:46.473Z,7.03
2017-10-04T01:16:14.219Z,7.60
2017-10-04T01:18:42.053Z,6.87
2017-10-04T01:21:09.822Z,7.70
2017-10-04T01:23:37.572Z,6.57
2017-10-04T01:26:05.379Z,6.97
2017-10-04T01:28:33.130Z,7.32
2017-10-04T01:31:00.886Z,8.32
2017-10-04T01:33:28.691Z,7.90
2017-10-04T01:35:56.447Z,7.20
2017-10-04T01:38:24.196Z,7.37
2017-10-04T01:40:52.099Z,7.55
2017-10-04T01:43:20.615Z,6.45
2017-10-04T01:45:48.376Z,8.98
2017-10-04T01:48:16.179Z,7.35
2017-10-04T01:50:43.932Z,8.30
2017-10-04T01:53:11.675Z,7.55
2017-10-04T01:55:39.479Z,7.43
2017-10-04T01:58:08.011Z,7.20
2017-10-04T02:00:35.762Z,7.43
2017-10-04T02:03:03.572Z,8.30
2017-10-04T02:05:31.320Z,7.90
2017-10-04T02:07:59.071Z,8.80
2017-10-04T02:10:26.880Z,6.60
2017-10-04T02:12:55.391Z,6.53
2017-10-04T02:15:23.139Z,6.75
2017-10-04T02:17:50.942Z,7.35
2017-10-04T02:20:18.691Z,7.95
2017-10-04T02:22:47.203Z,7.80
2017-10-04T02:25:15.002Z,6.55
2017-10-04T02:27:42.749Z,8.27
2017-10-04T02:30:10.492Z,6.40
2017-10-04T02:32:39.060Z,7.28
2017-10-04T02:35:06.804Z,5.65
2017-10-04T02:37:34.555Z,7.50
2017-10-04T02:40:02.368Z,7.30
2017-10-04T02:42:30.888Z,6.18
2017-10-04T02:44:58.634Z,6.35
2017-10-04T02:47:26.459Z,6.78
2017-10-04T02:49:54.207Z,6.75
2017-10-04T02:52:21.956Z,7.53
2017-10-04T02:54:49.764Z,6.62
2017-10-04T02:57:18.286Z,5.95
2017-10-04T02:59:46.035Z,7.10
2017-10-04T03:02:13.852Z,5.00
2017-10-04T03:04:42.362Z,6.82
2017-10-04T03:07:10.103Z,6.62
2017-10-04T03:09:38.671Z,6.07
2017-10-04T03:12:07.184Z,5.85
2017-10-04T03:14:34.940Z,6.20
2017-10-04T03:17:02.748Z,5.40
2017-10-04T03:19:30.499Z,6.15
2017-10-04T03:21:58.247Z,5.55
2017-10-04T03:24:26.051Z,7.32
2017-10-04T03:26:53.790Z,6.25
2017-10-04T03:29:21.534Z,7.45
2017-10-04T03:31:49.343Z,6.07
2017-10-04T03:34:17.852Z,7.53
2017-10-04T03:36:45.599Z,5.35
2017-10-04T03:39:14.171Z,6.43
2017-10-04T03:41:42.678Z,5.28
2017-10-04T03:44:10.428Z,6.68
2017-10-04T03:46:38.239Z,6.53
2017-10-04T03:49:05.989Z,7.25
2017-10-04T03:51:33.742Z,8.35
2017-10-04T03:54:01.543Z,6.97
2017-10-04T03:56:29.295Z,6.87
2017-10-04T03:58:57.060Z,6.00
2017-10-04T04:01:25.162Z,5.50
2017-10-04T04:03:52.906Z,6.18
2017-10-04T04:06:21.418Z,6.35
2017-10-04T04:08:49.229Z,5.90
2017-10-04T04:11:16.971Z,6.10
2017-10-04T04:13:44.726Z,8.43
2017-10-04T04:16:12.774Z,6.50
2017-10-04T04:18:40.527Z,7.75
2017-10-04T04:21:08.281Z,6.57
2017-10-04T04:23:36.079Z,6.12
2017-10-04T04:26:03.824Z,6.85
2017-10-04T04:28:31.588Z,6.72
2017-10-04T04:30:59.390Z,6.53
2017-10-04T04:33:27.136Z,6.90
2017-10-04T04:35:54.895Z,6.50
2017-10-04T04:38:34.583Z,6.18
2017-10-04T04:41:03.096Z,6.65
2017-10-04T04:43:30.847Z,7.10
2017-10-04T04:45:58.650Z,7.00
2017-10-04T04:48:26.409Z,6.47
2017-10-04T04:50:54.159Z,8.05
2017-10-04T04:53:21.968Z,7.97
2017-10-04T04:55:50.478Z,6.37
2017-10-04T04:58:18.223Z,8.70
2017-10-04T05:00:46.039Z,7.87
2017-10-04T05:03:13.792Z,7.97
2017-10-04T05:05:41.538Z,7.10
2017-10-04T05:08:09.336Z,6.37
2017-10-04T05:10:37.091Z,6.15
2017-10-04T05:13:04.835Z,6.93
2017-10-04T05:15:32.648Z,6.87
2017-10-04T05:18:01.174Z,9.75
2017-10-04T05:20:28.926Z,6.57
2017-10-04T05:22:56.727Z,6.87
2017-10-04T05:25:24.498Z,6.55
2017-10-04T05:27:53.016Z,7.72
2017-10-04T05:30:20.818Z,6.93
2017-10-04T05:32:48.563Z,6.55
2017-10-04T05:35:16.311Z,6.47
2017-10-04T05:37:44.123Z,6.78
2017-10-04T05:40:11.871Z,6.82
2017-10-04T05:42:39.619Z,7.45
2017-10-04T05:45:07.432Z,6.37
2017-10-04T05:47:35.179Z,6.10
2017-10-04T05:50:03.700Z,6.03
2017-10-04T05:52:31.504Z,6.57
2017-10-04T05:54:59.272Z,7.32
2017-10-04T05:57:27.028Z,7.90
2017-10-04T05:59:54.832Z,6.05
2017-10-04T06:02:22.600Z,6.07
2017-10-04T06:04:50.351Z,6.28
2017-10-04T06:07:18.156Z,5.62
2017-10-04T06:09:45.902Z,7.37
2017-10-04T06:12:13.653Z,5.87
2017-10-04T06:14:42.227Z,6.15
2017-10-04T06:17:09.992Z,6.43
2017-10-04T06:19:37.752Z,6.55
2017-10-04T06:22:05.587Z,4.80
2017-10-04T06:24:34.105Z,6.68
2017-10-04T06:27:03.068Z,5.75
2017-10-04T06:29:30.883Z,10.68
2017-10-04T06:31:58.652Z,5.85
2017-10-04T06:34:26.415Z,7.35
2017-10-04T06:36:54.224Z,6.20
2017-10-04T06:39:21.994Z,5.85
2017-10-04T06:41:49.744Z,4.80
2017-10-04T06:44:17.554Z,5.60
2017-10-04T06:46:45.312Z,6.97
2017-10-04T06:49:13.071Z,4.53
2017-10-04T06:51:40.898Z,4.97
2017-10-04T06:54:08.651Z,4.85
2017-10-04T06:56:36.395Z,4.87
2017-10-04T06:59:04.966Z,4.03
2017-10-04T07:01:32.721Z,4.95
2017-10-04T07:04:00.471Z,4.75
2017-10-04T07:06:28.275Z,6.45
2017-10-04T07:08:56.045Z,5.12
2017-10-04T07:11:23.816Z,4.57
2017-10-04T07:13:51.649Z,4.70
2017-10-04T07:16:20.184Z,4.28
2017-10-04T07:18:47.954Z,4.57
2017-10-04T07:21:15.778Z,4.22
2017-10-04T07:23:43.538Z,4.25
2017-10-04T07:26:11.310Z,5.00
2017-10-04T07:28:39.137Z,5.00
2017-10-04T07:31:07.686Z,5.53
2017-10-04T07:33:35.512Z,5.18
2017-10-04T07:36:03.347Z,4.43
2017-10-04T07:38:31.880Z,4.25
2017-10-04T07:40:59.674Z,5.15
2017-10-04T07:43:27.501Z,4.10
2017-10-04T07:45:55.265Z,4.53
2017-10-04T07:48:23.030Z,4.28
2017-10-04T07:50:50.860Z,5.18
2017-10-04T07:53:18.628Z,4.10
2017-10-04T07:55:46.393Z,4.65
2017-10-04T07:58:14.218Z,4.55
2017-10-04T08:00:42.754Z,4.95
2017-10-04T08:03:10.528Z,3.62
2017-10-04T08:05:38.376Z,3.70
2017-10-04T08:08:06.145Z,4.50
2017-10-04T08:10:33.918Z,4.55
2017-10-04T08:13:01.750Z,4.30
2017-10-04T08:15:29.521Z,4.53
2017-10-04T08:17:57.290Z,3.90
2017-10-04T08:20:25.113Z,4.40
2017-10-04T08:22:52.881Z,5.57
2017-10-04T08:25:20.647Z,5.35
2017-10-04T08:27:48.477Z,4.85
2017-10-04T08:30:16.242Z,5.12
2017-10-04T08:32:44.776Z,4.90
2017-10-04T08:35:12.603Z,4.93
2017-10-04T08:37:40.369Z,4.85
2017-10-04T08:40:08.139Z,4.43
2017-10-04T08:42:35.985Z,5.07
2017-10-04T08:45:04.542Z,4.95
2017-10-04T09:01:03.885Z,4.97
2017-10-04T09:03:31.650Z,5.00
2017-10-04T09:06:03.410Z,5.00
2017-10-04T09:08:31.209Z,4.55
2017-10-04T09:10:59.743Z,5.78
2017-10-04T09:13:27.569Z,6.18
2017-10-04T09:15:55.328Z,4.82
2017-10-04T09:18:23.094Z,5.57
2017-10-04T09:20:50.941Z,5.22
2017-10-04T09:23:19.468Z,6.15
2017-10-04T09:25:47.234Z,6.00
2017-10-04T09:28:15.078Z,5.50
2017-10-04T09:30:42.863Z,5.57
2017-10-04T09:33:10.624Z,5.75
2017-10-04T09:35:38.449Z,5.43
2017-10-04T09:38:06.220Z,5.22
2017-10-04T09:40:33.986Z,5.37
2017-10-04T09:43:01.837Z,7.22
2017-10-04T09:45:29.600Z,6.20
2017-10-04T09:47:57.370Z,7.57
2017-10-04T09:50:25.194Z,7.07
2017-10-04T09:52:53.751Z,7.50
2017-10-04T09:55:21.518Z,6.37
2017-10-04T09:57:49.345Z,7.90
2017-10-04T10:00:17.115Z,6.70
2017-10-04T10:02:44.877Z,6.10
2017-10-04T10:05:12.702Z,7.05
2017-10-04T10:07:41.233Z,7.70
2017-10-04T10:10:08.999Z,6.00
2017-10-04T10:12:36.829Z,6.62
2017-10-04T10:15:04.598Z,5.75
2017-10-04T10:17:34.890Z,4.75
2017-10-04T10:20:01.762Z,5.07
2017-10-04T10:22:29.529Z,3.90
2017-10-04T10:24:57.333Z,5.20
2017-10-04T10:27:25.165Z,3.30
2017-10-04T10:29:52.934Z,2.30
2017-10-04T10:32:20.718Z,2.20
2017-10-04T10:34:48.541Z,2.60
2017-10-04T10:37:16.301Z,2.47
2017-10-04T10:39:44.072Z,2.90
2017-10-04T10:42:11.910Z,1.92
2017-10-04T10:44:39.669Z,2.10
2017-10-04T10:47:07.429Z,1.77
2017-10-04T10:49:35.257Z,1.85
2017-10-04T10:52:03.029Z,2.80
2017-10-04T10:54:31.566Z,2.08
2017-10-04T10:56:59.388Z,2.47
2017-10-04T10:59:27.197Z,2.85
2017-10-04T11:01:54.958Z,2.78
2017-10-04T11:04:22.798Z,2.75
2017-10-04T11:06:50.566Z,2.87
2017-10-04T11:09:18.330Z,2.10
2017-10-04T11:11:46.166Z,2.22
2017-10-04T11:14:13.934Z,3.00
2017-10-04T11:16:41.694Z,2.60
2017-10-04T11:19:09.529Z,2.08
2017-10-04T11:21:38.062Z,1.92
2017-10-04T11:24:05.831Z,1.80
2017-10-04T11:26:33.662Z,2.90
2017-10-04T11:29:01.425Z,1.92
2017-10-04T11:31:29.190Z,2.00
2017-10-04T11:33:57.019Z,2.30
2017-10-04T11:36:24.782Z,1.52
2017-10-04T11:38:52.550Z,2.85
2017-10-04T11:41:21.146Z,3.22
2017-10-04T11:43:48.924Z,3.22
2017-10-04T11:46:16.733Z,1.92
2017-10-04T11:48:44.558Z,3.30
2017-10-04T11:51:12.356Z,2.72
2017-10-04T11:53:40.120Z,2.15
2017-10-04T11:56:08.370Z,2.47
2017-10-04T11:58:36.147Z,3.17
2017-10-04T12:01:03.918Z,2.35
2017-10-04T12:03:31.757Z,3.33
2017-10-04T12:05:59.526Z,3.70
2017-10-04T12:08:27.294Z,2.95
2017-10-04T12:10:55.118Z,3.42
2017-10-04T12:13:22.880Z,3.50
2017-10-04T12:15:50.642Z,3.00
2017-10-04T12:18:18.470Z,3.33
2017-10-04T12:20:47.000Z,4.00
2017-10-04T12:23:14.789Z,3.75
2017-10-04T12:25:42.622Z,3.72
2017-10-04T12:28:10.389Z,3.50
2017-10-04T12:30:38.157Z,4.30
2017-10-04T12:33:06.077Z,3.35
2017-10-04T12:35:34.610Z,4.50
2017-10-04T12:38:02.378Z,2.85
2017-10-04T12:40:30.243Z,3.83
2017-10-04T12:42:58.033Z,3.97
2017-10-04T12:45:26.569Z,4.00
2017-10-04T12:47:54.401Z,5.10
2017-10-04T12:50:22.178Z,4.03
2017-10-04T12:52:49.955Z,4.72
2017-10-04T12:55:17.780Z,3.97
2017-10-04T12:57:45.556Z,4.62
2017-10-04T13:00:13.359Z,3.40
2017-10-04T13:02:41.193Z,3.60
2017-10-04T13:05:08.986Z,4.50
2017-10-04T13:07:36.753Z,4.10
2017-10-04T13:10:04.581Z,4.40
2017-10-04T13:12:32.354Z,4.20
2017-10-04T13:15:00.118Z,3.53
2017-10-04T13:17:27.946Z,5.55
2017-10-04T13:19:55.705Z,4.50
2017-10-04T13:22:23.478Z,4.68
2017-10-04T13:24:51.310Z,3.20
2017-10-04T13:27:19.846Z,4.20
2017-10-04T13:29:47.633Z,4.50
2017-10-04T13:32:15.465Z,3.40
2017-10-04T13:34:43.242Z,4.30
2017-10-04T13:37:11.038Z,7.07
2017-10-04T13:39:39.642Z,10.60
2017-10-04T13:42:07.462Z,6.75
2017-10-04T13:44:35.235Z,6.55
2017-10-04T13:47:03.080Z,12.63
2017-10-04T13:49:30.846Z,6.18
2017-10-04T13:51:58.618Z,5.35
2017-10-04T13:54:26.449Z,4.68
2017-10-04T13:56:54.214Z,5.10
2017-10-04T13:59:21.977Z,5.70
2017-10-04T14:01:49.953Z,7.00
2017-10-04T14:04:17.723Z,7.95
2017-10-04T14:06:45.505Z,7.03
2017-10-04T14:09:13.328Z,6.60
2017-10-04T14:11:41.118Z,8.48
2017-10-04T14:14:08.921Z,7.62
2017-10-04T14:16:36.757Z,7.72
2017-10-04T14:19:05.299Z,6.57
2017-10-04T14:21:33.065Z,5.55
2017-10-04T14:24:00.894Z,11.32
2017-10-04T14:26:28.686Z,17.33
2017-10-04T14:28:56.490Z,6.15
2017-10-04T14:31:25.097Z,5.50
2017-10-04T14:33:52.876Z,6.45
2017-10-04T14:36:20.651Z,5.87
2017-10-04T14:38:49.343Z,4.50
2017-10-04T14:41:17.113Z,4.43
2017-10-04T14:43:44.883Z,3.83
2017-10-04T14:46:12.731Z,4.00
2017-10-04T14:48:40.512Z,4.50
2017-10-04T14:51:08.294Z,3.85
2017-10-04T14:53:36.893Z,5.43
2017-10-04T14:56:04.694Z,5.70
2017-10-04T14:58:32.464Z,4.85
2017-10-04T15:01:00.303Z,5.28
2017-10-04T15:03:28.108Z,6.40
2017-10-04T15:05:55.881Z,5.72
2017-10-04T15:08:24.486Z,6.82
2017-10-04T15:10:52.255Z,5.05
2017-10-04T15:13:20.018Z,4.57
2017-10-04T15:15:47.844Z,4.93
2017-10-04T15:18:15.612Z,4.30
2017-10-04T15:20:44.146Z,5.87
2017-10-04T15:23:11.971Z,4.40
2017-10-04T15:25:40.508Z,4.70
2017-10-04T15:28:08.275Z,5.18
2017-10-04T15:30:36.097Z,5.43
2017-10-04T15:33:03.877Z,4.82
2017-10-04T15:35:31.643Z,5.10
2017-10-04T15:37:59.469Z,6.12
2017-10-04T15:40:27.246Z,6.28
2017-10-04T15:42:55.017Z,5.87
2017-10-04T15:45:22.861Z,5.05
2017-10-04T15:47:50.634Z,5.47
2017-10-04T15:50:18.423Z,4.80
2017-10-04T15:52:46.250Z,5.30
2017-10-04T15:55:14.038Z,4.45
2017-10-04T15:57:41.819Z,5.05
2017-10-04T16:00:09.643Z,5.68
2017-10-04T16:02:37.414Z,7.53
2017-10-04T16:05:05.220Z,5.07
2017-10-04T16:07:33.055Z,6.05
2017-10-04T16:10:00.818Z,5.60
2017-10-04T16:12:28.606Z,6.35
2017-10-04T16:14:56.426Z,7.55
2017-10-04T16:17:24.194Z,6.72
2017-10-04T16:19:51.960Z,5.75
2017-10-04T16:22:19.790Z,5.57
2017-10-04T16:24:47.558Z,5.85
2017-10-04T16:27:15.351Z,5.72
2017-10-04T16:29:43.175Z,5.97
2017-10-04T16:32:10.953Z,7.20
2017-10-04T16:34:38.756Z,8.20
2017-10-04T16:37:06.582Z,6.45
2017-10-04T16:39:34.353Z,7.70
2017-10-04T16:42:02.150Z,7.85
2017-10-04T16:44:30.003Z,8.50
2017-10-04T16:46:57.770Z,7.50
2017-10-04T16:49:25.587Z,6.15
2017-10-04T16:51:53.410Z,6.53
2017-10-04T16:54:21.188Z,7.30
2017-10-04T16:56:49.792Z,6.90
2017-10-04T16:59:18.469Z,6.50
2017-10-04T17:01:46.612Z,8.02
2017-10-04T17:04:15.413Z,8.20
2017-10-04T17:06:44.125Z,8.13
2017-10-04T17:09:12.121Z,9.55
2017-10-04T17:11:39.986Z,10.23
2017-10-04T17:14:07.833Z,8.38
2017-10-04T17:16:35.896Z,8.23
2017-10-04T17:19:03.719Z,9.05
2017-10-04T17:21:32.531Z,8.85
2017-10-04T17:24:01.094Z,9.68
2017-10-04T17:26:29.876Z,14.98
2017-10-04T17:28:58.783Z,18.00
2017-10-04T17:31:26.819Z,22.17
2017-10-04T17:33:55.387Z,16.90
2017-10-04T17:36:23.352Z,15.60
2017-10-04T17:38:51.945Z,17.33
2017-10-04T17:41:20.544Z,17.00
2017-10-04T17:43:48.651Z,18.62
2017-10-04T17:46:17.659Z,17.60
2017-10-04T17:48:45.659Z,17.35
2017-10-04T17:51:14.082Z,22.87
2017-10-04T17:53:41.903Z,21.85
2017-10-04T17:56:10.489Z,17.37
2017-10-04T17:58:38.448Z,18.35
2017-10-04T18:01:06.397Z,16.42
2017-10-04T18:03:34.227Z,20.50
2017-10-04T18:06:02.148Z,20.50
2017-10-04T18:08:29.935Z,18.90
2017-10-04T18:10:57.737Z,20.73
2017-10-04T18:13:25.602Z,16.37
2017-10-04T18:15:53.383Z,13.88
2017-10-04T18:18:21.161Z,13.20
2017-10-04T18:20:49.766Z,12.15
2017-10-04T18:23:17.564Z,10.90
2017-10-04T18:25:45.360Z,11.65
2017-10-04T18:28:13.961Z,11.80
2017-10-04T18:30:41.734Z,11.23
2017-10-04T18:33:09.511Z,11.02
2017-10-04T18:35:37.351Z,12.05
2017-10-04T18:38:05.122Z,11.35
2017-10-04T18:40:32.911Z,12.15
2017-10-04T18:43:00.750Z,10.75
2017-10-04T18:45:28.527Z,11.77
2017-10-04T18:47:56.833Z,12.07
2017-10-04T18:50:24.839Z,10.35
2017-10-04T18:52:52.644Z,10.05
2017-10-04T18:55:20.422Z,10.82
2017-10-04T18:57:48.334Z,11.05
2017-10-04T19:00:16.172Z,10.85
2017-10-04T19:02:44.719Z,10.45
2017-10-04T19:05:12.565Z,11.02
2017-10-04T19:07:40.513Z,9.82
2017-10-04T19:10:08.419Z,9.75
2017-10-04T19:12:36.270Z,10.93
2017-10-04T19:15:04.053Z,8.75
2017-10-04T19:17:31.900Z,9.27
2017-10-04T19:19:59.737Z,8.35
2017-10-04T19:22:27.532Z,8.50
2017-10-04T19:24:55.335Z,9.48
2017-10-04T19:27:23.231Z,9.75
2017-10-04T19:29:51.122Z,10.80
2017-10-04T19:32:18.913Z,8.88
2017-10-04T19:34:47.529Z,10.45
2017-10-04T19:37:15.313Z,9.20
2017-10-04T19:39:43.086Z,10.05
2017-10-04T19:42:10.925Z,8.73
2017-10-04T19:44:38.706Z,10.57
2017-10-04T19:47:06.497Z,10.25
2017-10-04T19:49:34.330Z,9.95
2017-10-04T19:52:02.106Z,9.85
2017-10-04T19:54:29.879Z,9.75
2017-10-04T19:56:57.718Z,10.45
2017-10-04T19:59:25.533Z,8.70
2017-10-04T20:01:54.071Z,9.38
2017-10-04T20:04:21.907Z,8.93
2017-10-04T20:06:49.676Z,9.15
2017-10-04T20:09:17.446Z,8.02
2017-10-04T20:11:45.278Z,8.70
2017-10-04T20:14:13.078Z,8.27
2017-10-04T20:16:40.851Z,8.52
2017-10-04T20:19:08.707Z,9.07
2017-10-04T20:21:36.481Z,9.70
2017-10-04T20:24:04.258Z,7.50
2017-10-04T20:26:32.849Z,7.25
2017-10-04T20:29:01.391Z,9.25
2017-10-04T20:31:29.161Z,9.20
2017-10-04T20:33:56.986Z,7.65
2017-10-04T20:36:24.755Z,6.95
2017-10-04T20:38:52.525Z,7.22
2017-10-04T20:41:20.397Z,8.55
2017-10-04T20:43:48.172Z,8.10
2017-10-04T20:46:15.946Z,6.40
2017-10-04T20:48:43.807Z,7.07
2017-10-04T20:51:11.575Z,6.93
2017-10-04T20:53:39.341Z,6.70
2017-10-04T20:56:07.968Z,7.97
2017-10-04T20:58:35.737Z,6.28
2017-10-04T21:01:03.506Z,6.82
2017-10-04T21:03:31.350Z,6.50
2017-10-04T21:05:59.125Z,6.43
2017-10-04T21:08:27.011Z,6.05
2017-10-04T21:10:54.835Z,7.55
2017-10-04T21:13:22.610Z,6.35
2017-10-04T21:15:50.394Z,6.20
2017-10-04T21:18:18.256Z,6.70
2017-10-04T21:20:46.027Z,5.95
2017-10-04T21:23:13.796Z,5.62
2017-10-04T21:25:41.638Z,7.03
2017-10-04T21:28:09.429Z,5.70
2017-10-04T21:30:37.197Z,5.50
2017-10-04T21:33:05.793Z,6.10
2017-10-04T21:35:34.324Z,5.55
2017-10-04T21:38:02.091Z,4.35
2017-10-04T21:40:29.922Z,4.85
2017-10-04T21:42:57.687Z,4.50
2017-10-04T21:45:25.454Z,6.95
2017-10-04T21:47:53.282Z,5.43
2017-10-04T21:50:21.829Z,5.30
2017-10-04T21:52:49.609Z,4.10
2017-10-04T21:55:17.434Z,5.22
2017-10-04T21:57:45.218Z,3.55
2017-10-04T22:00:12.990Z,3.60
2017-10-04T22:02:40.845Z,3.30
2017-10-04T22:05:08.609Z,3.50
2017-10-04T22:07:36.379Z,3.85
2017-10-04T22:10:04.223Z,2.97
2017-10-04T22:12:31.991Z,3.45
2017-10-04T22:14:59.760Z,4.22
2017-10-04T22:17:27.611Z,3.10
2017-10-04T22:19:55.376Z,3.00
2017-10-04T22:22:23.137Z,2.37
2017-10-04T22:24:50.977Z,3.15
2017-10-04T22:27:18.746Z,2.72
2017-10-04T22:29:46.517Z,2.72
2017-10-04T22:32:14.354Z,3.10
2017-10-04T22:34:42.117Z,2.90
2017-10-04T22:37:09.889Z,3.45
2017-10-04T22:39:37.729Z,3.50
2017-10-04T22:42:05.508Z,5.40
2017-10-04T22:44:33.265Z,3.15
2017-10-04T22:47:01.089Z,3.42
2017-10-04T22:49:29.621Z,2.95
2017-10-04T22:51:57.385Z,2.97
2017-10-04T22:54:25.210Z,4.03
2017-10-04T22:56:52.977Z,3.60
2017-10-04T22:59:20.758Z,2.83
2017-10-04T23:01:48.583Z,3.22
2017-10-04T23:04:17.117Z,2.75
2017-10-04T23:06:44.885Z,2.72
2017-10-04T23:09:12.872Z,3.22
2017-10-04T23:11:40.638Z,2.78
2017-10-04T23:14:08.407Z,3.28
2017-10-04T23:16:37.022Z,3.60
2017-10-04T23:19:04.803Z,3.30
2017-10-04T23:21:32.579Z,2.47
2017-10-04T23:24:00.397Z,3.00
2017-10-04T23:26:28.161Z,2.72
2017-10-04T23:28:55.962Z,2.95
2017-10-04T23:31:23.804Z,2.50
2017-10-04T23:33:51.570Z,2.70
2017-10-04T23:36:19.337Z,3.50
2017-10-04T23:38:47.153Z,2.62
2017-10-04T23:41:15.759Z,2.65
2017-10-04T23:43:43.527Z,3.80
2017-10-04T23:46:11.353Z,2.78
2017-10-04T23:48:39.882Z,3.15
2017-10-04T23:51:07.646Z,3.20
2017-10-04T23:53:35.466Z,2.60
2017-10-04T23:56:03.992Z,2.55
2017-10-04T23:58:31.753Z,3.58
